EGGDLPMA

Guest
Details From EGGD - Bristol Lulsgate
To LPMA - Madeira
Flight Number -
Tags Generated
Created
Modified
Stats Distance 1,281 nm / 2,373 km
Max Altitude 0 ft / 0 m
Waypoints 3
Social Downloads 1
Likes 0
Share VATSIM

Download

Looking for another format? Having issues loading an existing format? Contact us
Advertisement - Login to hide

Notes

Generated

Route

EGGD MAD LPMA

ID Type Via Altitude Latitude Longitude Leg Dist Tot Dist Heading (true) Name
O EGGD APT - 0 ft / 0 m 51.38211˚ -2.73350˚ - 0 nm - -
MAD NDB - 0 ft / 0 m 32.74813˚ -16.70651˚ 1275 nm 1275 nm 214° / 205° MADEIRA NDB
O LPMA APT - 0 ft / 0 m 32.68900˚ -16.78409˚ 5 nm 1281 nm 228° / 228° -

Altitude Profile

Advertisement - Login to hide

Weather


0- 5 10 15 20 25 30 35+ Temperature / ° C

Clouds and Precipitation
Forecast for 2018-05-21 00:00 UTC. Updated 2 hours ago

Ground ~20,000 ft ~40,000 ft Winds

EGGD

Details ICAO EGGD (BRS)
Name Bristol International
Region United Kingdom
Timezone Europe/London (UTC+1.0)
Stats Elevation 622 ft / 190 m (AMSL)
Location 51.382658° -2.718918°
Runways 1
Magnetic Variation 1.285° W

METAR

EGGD 210120Z AUTO VRB01KT 9999 SCT037 12/09 Q1018

Decode

TAF

TAF EGGD 202256Z 2100/2124 17005KT 9999 FEW045 PROB30 2100/2108 7000 PROB40 2112/2117 03010KT PROB40 TEMPO 2115/2120 4000 +SHRA TSGR

Decode

Departure Runways

ID Width Length Bearing (true) Bearing (mag) Surface Threshold Offset Overrun Length
09 148 ft / 45 m 6,655 ft / 2,029 m 86.42° 87.71° Asphalt 0 ft / 0 m 0 ft / 0 m
27 148 ft / 45 m 6,655 ft / 2,029 m 266.44° 267.73° Asphalt 499 ft / 152 m 0 ft / 0 m

LPMA

Details ICAO LPMA (FNC)
Name Madeira
Region Portugal
Timezone Atlantic/Madeira (UTC+1.0)
Stats Elevation 192 ft / 59 m (AMSL)
Location 32.697704° -16.774449°
Runways 1
Magnetic Variation 4.929° W

METAR

LPMA 210130Z 31004KT 250V350 9999 FEW018 16/10 Q1017

Decode

TAF

TAF LPMA 202300Z 2100/2124 VRB05KT 9999 SCT016 TEMPO 2100/2118 SCT015 BKN030 PROB40 2109/2120 20008KT BECMG 2118/2120 BKN015 TEMPO 2120/2124 6000 -RADZ SCT008 BKN013

Decode

Destination Runways

ID Width Length Bearing (true) Bearing (mag) Surface Threshold Offset Overrun Length
05 141 ft / 43 m 8,683 ft / 2,647 m 42.98° 47.91° Asphalt 472 ft / 144 m 0 ft / 0 m
23 141 ft / 43 m 8,683 ft / 2,647 m 222.99° 227.92° Asphalt 466 ft / 142 m 0 ft / 0 m

Popular Alternatives